ETH461 VIDP-OMDB
Flight info
| Callsign | ETH461 |
|---|---|
| Flight time | N/A |
| Altitude | 40000 |
| Route | VIDP/29R SURAM G333 MERUN G452 RK G214 BIVIN R462 VUSET A454 PASOV B540 KUPMA/N0441F240 B540 MIVEK P574 IMPED IMPED3C |
| Aircraft | B788/H-SDE1E2E3FGHIJ2J3J4J5M1RWXY/LB1D1 |
Departure
| Time | N/A |
|---|---|
| Airport | Indira Gandhi International Airport (VIDP) |
Arrival
| Time | 2026-04-25 19:42 |
|---|---|
| Airport | Dubai International Airport (OMDB) |
| Time | Latitude | Longitude | Altitude | Speed | Heading |
|---|---|---|---|---|---|
| 2026-04-25 18:41 | 25.12998 | 61.87569 | 39967 ft | 459 kts | 230° |
| 2026-04-25 18:41 | 25.10844 | 61.84958 | 39967 ft | 460 kts | 230° |
| 2026-04-25 18:42 | 25.08189 | 61.81264 | 39958 ft | 459 kts | 239° |
| 2026-04-25 18:42 | 25.04065 | 61.73014 | 39979 ft | 458 kts | 245° |
| 2026-04-25 18:43 | 25.01299 | 61.66700 | 39977 ft | 456 kts | 246° |
| 2026-04-25 18:43 | 24.98656 | 61.60352 | 39978 ft | 454 kts | 247° |
| 2026-04-25 18:44 | 24.96038 | 61.53980 | 39961 ft | 452 kts | 247° |
| 2026-04-25 18:44 | 24.93426 | 61.47605 | 39972 ft | 454 kts | 248° |
| 2026-04-25 18:45 | 24.90869 | 61.41241 | 39963 ft | 454 kts | 248° |
| 2026-04-25 18:45 | 24.88351 | 61.34946 | 39948 ft | 449 kts | 248° |
| 2026-04-25 18:46 | 24.85830 | 61.28653 | 39950 ft | 448 kts | 248° |
| 2026-04-25 18:46 | 24.83307 | 61.22364 | 39949 ft | 449 kts | 248° |
| 2026-04-25 18:47 | 24.80791 | 61.16105 | 39940 ft | 449 kts | 248° |
| 2026-04-25 18:47 | 24.78245 | 61.09783 | 39940 ft | 448 kts | 248° |
| 2026-04-25 18:48 | 24.75712 | 61.03497 | 39945 ft | 448 kts | 248° |
| 2026-04-25 18:48 | 24.73175 | 60.97214 | 39947 ft | 449 kts | 248° |
| 2026-04-25 18:49 | 24.70615 | 60.90933 | 39936 ft | 451 kts | 248° |
| 2026-04-25 18:49 | 24.67947 | 60.84694 | 39939 ft | 450 kts | 247° |
| 2026-04-25 18:50 | 24.65259 | 60.78478 | 39941 ft | 451 kts | 247° |
| 2026-04-25 18:50 | 24.62561 | 60.72239 | 39934 ft | 452 kts | 247° |
| 2026-04-25 18:51 | 24.60774 | 60.68103 | 39942 ft | 452 kts | 247° |
| 2026-04-25 18:51 | 24.57165 | 60.59772 | 39941 ft | 452 kts | 246° |
| 2026-04-25 18:52 | 24.54920 | 60.54601 | 39928 ft | 448 kts | 247° |
| 2026-04-25 18:52 | 24.52230 | 60.48412 | 39941 ft | 449 kts | 247° |
| 2026-04-25 18:53 | 24.49532 | 60.42208 | 39940 ft | 450 kts | 246° |
| 2026-04-25 18:53 | 24.46396 | 60.35016 | 39936 ft | 449 kts | 246° |
| 2026-04-25 18:54 | 24.42793 | 60.26765 | 39938 ft | 451 kts | 247° |
| 2026-04-25 18:55 | 24.40074 | 60.20546 | 39930 ft | 451 kts | 247° |
| 2026-04-25 18:55 | 24.37357 | 60.14340 | 39942 ft | 451 kts | 247° |
| 2026-04-25 18:56 | 24.34656 | 60.08180 | 39934 ft | 451 kts | 247° |
| 2026-04-25 18:56 | 24.31910 | 60.01922 | 39926 ft | 451 kts | 247° |
| 2026-04-25 18:57 | 24.29191 | 59.95736 | 39927 ft | 450 kts | 247° |
| 2026-04-25 18:57 | 24.26456 | 59.89517 | 39914 ft | 449 kts | 247° |
| 2026-04-25 18:58 | 24.23737 | 59.83343 | 39924 ft | 450 kts | 247° |
| 2026-04-25 18:58 | 24.19646 | 59.74079 | 39916 ft | 451 kts | 247° |
| 2026-04-25 18:59 | 24.14164 | 59.61685 | 39922 ft | 451 kts | 247° |
| 2026-04-25 19:00 | 24.10033 | 59.52369 | 39909 ft | 451 kts | 247° |
| 2026-04-25 19:01 | 24.07270 | 59.46148 | 39238 ft | 458 kts | 247° |
| 2026-04-25 19:01 | 24.05858 | 59.42976 | 38678 ft | 456 kts | 247° |
| 2026-04-25 19:01 | 24.04467 | 59.39856 | 38112 ft | 456 kts | 247° |
| 2026-04-25 19:01 | 24.03074 | 59.36730 | 37540 ft | 458 kts | 247° |
| 2026-04-25 19:02 | 24.00259 | 59.30411 | 36357 ft | 465 kts | 247° |
| 2026-04-25 19:02 | 23.98838 | 59.27225 | 35742 ft | 467 kts | 247° |
| 2026-04-25 19:02 | 23.97412 | 59.24030 | 35128 ft | 467 kts | 246° |
| 2026-04-25 19:03 | 23.95514 | 59.19765 | 34328 ft | 467 kts | 247° |
| 2026-04-25 19:03 | 23.94132 | 59.14090 | 33135 ft | 466 kts | 265° |
| 2026-04-25 19:03 | 23.94177 | 59.10545 | 32538 ft | 466 kts | 276° |
| 2026-04-25 19:04 | 23.95900 | 59.03735 | 31448 ft | 459 kts | 289° |
| 2026-04-25 19:04 | 23.97018 | 59.00466 | 30855 ft | 457 kts | 290° |
| 2026-04-25 19:05 | 23.99215 | 58.93972 | 29662 ft | 453 kts | 289° |
| 2026-04-25 19:05 | 24.01303 | 58.87515 | 28526 ft | 446 kts | 288° |
| 2026-04-25 19:05 | 24.02314 | 58.84326 | 27964 ft | 441 kts | 288° |
| 2026-04-25 19:06 | 24.03308 | 58.81170 | 27400 ft | 437 kts | 288° |
| 2026-04-25 19:06 | 24.05270 | 58.74934 | 26269 ft | 429 kts | 289° |
| 2026-04-25 19:06 | 24.06233 | 58.71867 | 25929 ft | 421 kts | 289° |
| 2026-04-25 19:07 | 24.08132 | 58.65813 | 25844 ft | 426 kts | 288° |
| 2026-04-25 19:07 | 24.09096 | 58.62738 | 25781 ft | 426 kts | 289° |
| 2026-04-25 19:08 | 24.11024 | 58.56599 | 25679 ft | 426 kts | 289° |
| 2026-04-25 19:08 | 24.12006 | 58.53496 | 25629 ft | 425 kts | 289° |
| 2026-04-25 19:09 | 24.14913 | 58.44322 | 25479 ft | 425 kts | 289° |
| 2026-04-25 19:09 | 24.15548 | 58.42315 | 25447 ft | 424 kts | 289° |
| 2026-04-25 19:09 | 24.17807 | 58.35166 | 25330 ft | 423 kts | 289° |
| 2026-04-25 19:10 | 24.18781 | 58.32078 | 25279 ft | 423 kts | 289° |
| 2026-04-25 19:10 | 24.19741 | 58.29031 | 25229 ft | 423 kts | 289° |
| 2026-04-25 19:10 | 24.20686 | 58.26030 | 25179 ft | 422 kts | 289° |
| 2026-04-25 19:10 | 24.21644 | 58.22984 | 25129 ft | 422 kts | 289° |
| 2026-04-25 19:11 | 24.22614 | 58.19901 | 25078 ft | 422 kts | 289° |
| 2026-04-25 19:11 | 24.23567 | 58.16867 | 25028 ft | 421 kts | 289° |
| 2026-04-25 19:11 | 24.24509 | 58.13869 | 24979 ft | 421 kts | 289° |
| 2026-04-25 19:11 | 24.25475 | 58.10793 | 24928 ft | 420 kts | 289° |
| 2026-04-25 19:12 | 24.26412 | 58.07806 | 24879 ft | 419 kts | 288° |
| 2026-04-25 19:12 | 24.27360 | 58.04781 | 24828 ft | 419 kts | 288° |
| 2026-04-25 19:12 | 24.28305 | 58.01761 | 24778 ft | 419 kts | 288° |
| 2026-04-25 19:12 | 24.29252 | 57.98732 | 24728 ft | 419 kts | 288° |
| 2026-04-25 19:13 | 24.30199 | 57.95701 | 24678 ft | 419 kts | 288° |
| 2026-04-25 19:13 | 24.31139 | 57.92688 | 24628 ft | 418 kts | 288° |
| 2026-04-25 19:13 | 24.32082 | 57.89664 | 24578 ft | 418 kts | 288° |
| 2026-04-25 19:13 | 24.33022 | 57.86652 | 24528 ft | 418 kts | 288° |
| 2026-04-25 19:14 | 24.33648 | 57.84645 | 24494 ft | 417 kts | 288° |
| 2026-04-25 19:14 | 24.34269 | 57.82651 | 24461 ft | 417 kts | 288° |
| 2026-04-25 19:14 | 24.35860 | 57.77530 | 24376 ft | 416 kts | 288° |
| 2026-04-25 19:14 | 24.36792 | 57.74527 | 24325 ft | 415 kts | 288° |
| 2026-04-25 19:15 | 24.37722 | 57.71533 | 24275 ft | 415 kts | 288° |
| 2026-04-25 19:15 | 24.38352 | 57.69505 | 24241 ft | 415 kts | 288° |
| 2026-04-25 19:15 | 24.39585 | 57.65535 | 24175 ft | 415 kts | 288° |
| 2026-04-25 19:15 | 24.40202 | 57.63551 | 24142 ft | 414 kts | 288° |
| 2026-04-25 19:16 | 24.41129 | 57.60561 | 24092 ft | 414 kts | 288° |
| 2026-04-25 19:16 | 24.42053 | 57.57569 | 24042 ft | 414 kts | 288° |
| 2026-04-25 19:16 | 24.42977 | 57.54578 | 23991 ft | 413 kts | 288° |
| 2026-04-25 19:16 | 24.43902 | 57.51583 | 23941 ft | 413 kts | 287° |
| 2026-04-25 19:17 | 24.44836 | 57.48558 | 23890 ft | 413 kts | 287° |
| 2026-04-25 19:17 | 24.45753 | 57.45582 | 23840 ft | 412 kts | 287° |
| 2026-04-25 19:17 | 24.46672 | 57.42598 | 23790 ft | 411 kts | 287° |
| 2026-04-25 19:17 | 24.47588 | 57.39629 | 23740 ft | 411 kts | 287° |
| 2026-04-25 19:18 | 24.48503 | 57.36655 | 23690 ft | 411 kts | 287° |
| 2026-04-25 19:18 | 24.49417 | 57.33683 | 23640 ft | 410 kts | 287° |
| 2026-04-25 19:18 | 24.50328 | 57.30713 | 23590 ft | 410 kts | 287° |
| 2026-04-25 19:18 | 24.51239 | 57.27747 | 23540 ft | 410 kts | 287° |
| 2026-04-25 19:19 | 24.52152 | 57.24772 | 23489 ft | 410 kts | 287° |
| 2026-04-25 19:19 | 24.53046 | 57.21851 | 23440 ft | 409 kts | 287° |
| 2026-04-25 19:19 | 24.53954 | 57.18886 | 23390 ft | 408 kts | 287° |
| 2026-04-25 19:19 | 24.54569 | 57.16881 | 23356 ft | 409 kts | 287° |
| 2026-04-25 19:20 | 24.55476 | 57.13918 | 23306 ft | 409 kts | 287° |
| 2026-04-25 19:20 | 24.56673 | 57.09999 | 23239 ft | 408 kts | 287° |
| 2026-04-25 19:20 | 24.57576 | 57.07042 | 23189 ft | 408 kts | 287° |
| 2026-04-25 19:20 | 24.58479 | 57.04081 | 23139 ft | 409 kts | 287° |
| 2026-04-25 19:21 | 24.59383 | 57.01116 | 23089 ft | 408 kts | 287° |
| 2026-04-25 19:21 | 24.61184 | 56.95201 | 22988 ft | 407 kts | 287° |
| 2026-04-25 19:21 | 24.62085 | 56.92243 | 22945 ft | 408 kts | 287° |
| 2026-04-25 19:22 | 24.62986 | 56.89277 | 22929 ft | 408 kts | 287° |
| 2026-04-25 19:22 | 24.63992 | 56.86354 | 22907 ft | 409 kts | 291° |
| 2026-04-25 19:22 | 24.66601 | 56.80817 | 22899 ft | 410 kts | 297° |
| 2026-04-25 19:23 | 24.68017 | 56.78096 | 22891 ft | 410 kts | 298° |
| 2026-04-25 19:23 | 24.70934 | 56.72701 | 22884 ft | 409 kts | 299° |
| 2026-04-25 19:23 | 24.72411 | 56.70010 | 22891 ft | 410 kts | 299° |
| 2026-04-25 19:24 | 24.73891 | 56.67319 | 22896 ft | 411 kts | 299° |
| 2026-04-25 19:24 | 24.75371 | 56.64631 | 22896 ft | 411 kts | 299° |
| 2026-04-25 19:24 | 24.77899 | 56.59017 | 22900 ft | 409 kts | 290° |
| 2026-04-25 19:25 | 24.79953 | 56.53152 | 21743 ft | 411 kts | 289° |
| 2026-04-25 19:25 | 24.81002 | 56.50240 | 21042 ft | 408 kts | 290° |
| 2026-04-25 19:25 | 24.82064 | 56.47359 | 20349 ft | 404 kts | 290° |
| 2026-04-25 19:26 | 24.83131 | 56.44509 | 19674 ft | 401 kts | 291° |
| 2026-04-25 19:26 | 24.84192 | 56.41691 | 19000 ft | 397 kts | 291° |
| 2026-04-25 19:26 | 24.85238 | 56.38924 | 18332 ft | 394 kts | 291° |
| 2026-04-25 19:26 | 24.86289 | 56.36147 | 17656 ft | 391 kts | 291° |
| 2026-04-25 19:27 | 24.87331 | 56.33395 | 16981 ft | 388 kts | 291° |
| 2026-04-25 19:27 | 24.88033 | 56.31540 | 16524 ft | 386 kts | 291° |
| 2026-04-25 19:27 | 24.89395 | 56.27938 | 15627 ft | 382 kts | 291° |
| 2026-04-25 19:27 | 24.90411 | 56.25251 | 14952 ft | 379 kts | 291° |
| 2026-04-25 19:28 | 24.91422 | 56.22578 | 14275 ft | 376 kts | 291° |
| 2026-04-25 19:28 | 24.92421 | 56.19932 | 13598 ft | 372 kts | 291° |
| 2026-04-25 19:28 | 24.93409 | 56.17311 | 12922 ft | 368 kts | 291° |
| 2026-04-25 19:28 | 24.94386 | 56.14718 | 12245 ft | 364 kts | 291° |
| 2026-04-25 19:29 | 24.95351 | 56.12155 | 11569 ft | 360 kts | 291° |
| 2026-04-25 19:29 | 24.96306 | 56.09620 | 10892 ft | 356 kts | 291° |
| 2026-04-25 19:29 | 24.97474 | 56.07262 | 10255 ft | 341 kts | 303° |
| 2026-04-25 19:29 | 24.98892 | 56.05294 | 10046 ft | 313 kts | 308° |
| 2026-04-25 19:30 | 25.00247 | 56.03548 | 9931 ft | 287 kts | 309° |
| 2026-04-25 19:30 | 25.01501 | 56.01961 | 9905 ft | 262 kts | 309° |
| 2026-04-25 19:30 | 25.02661 | 56.00497 | 9884 ft | 251 kts | 309° |
| 2026-04-25 19:30 | 25.03848 | 55.98992 | 9910 ft | 267 kts | 309° |
| 2026-04-25 19:31 | 25.05072 | 55.97442 | 9912 ft | 268 kts | 309° |
| 2026-04-25 19:31 | 25.06316 | 55.95873 | 9906 ft | 269 kts | 309° |
| 2026-04-25 19:31 | 25.07552 | 55.94351 | 9900 ft | 269 kts | 310° |
| 2026-04-25 19:31 | 25.08834 | 55.92782 | 9843 ft | 278 kts | 310° |
| 2026-04-25 19:32 | 25.10133 | 55.91191 | 9766 ft | 279 kts | 310° |
| 2026-04-25 19:32 | 25.11419 | 55.89616 | 9581 ft | 272 kts | 310° |
| 2026-04-25 19:32 | 25.12661 | 55.88094 | 9064 ft | 270 kts | 310° |
| 2026-04-25 19:32 | 25.13508 | 55.87054 | 8656 ft | 270 kts | 310° |
| 2026-04-25 19:33 | 25.15181 | 55.84998 | 7853 ft | 269 kts | 310° |
| 2026-04-25 19:33 | 25.16282 | 55.83342 | 7244 ft | 266 kts | 302° |
| 2026-04-25 19:33 | 25.17254 | 55.81615 | 6682 ft | 264 kts | 300° |
| 2026-04-25 19:33 | 25.18192 | 55.79913 | 6331 ft | 255 kts | 300° |
| 2026-04-25 19:34 | 25.19115 | 55.78238 | 6188 ft | 258 kts | 300° |
| 2026-04-25 19:34 | 25.20058 | 55.76535 | 6182 ft | 264 kts | 300° |
| 2026-04-25 19:34 | 25.21015 | 55.74807 | 6114 ft | 261 kts | 300° |
| 2026-04-25 19:34 | 25.21967 | 55.73089 | 5799 ft | 263 kts | 300° |
| 2026-04-25 19:35 | 25.22924 | 55.71363 | 5502 ft | 263 kts | 301° |
| 2026-04-25 19:35 | 25.23873 | 55.69663 | 5360 ft | 256 kts | 301° |
| 2026-04-25 19:35 | 25.24796 | 55.68014 | 5274 ft | 248 kts | 301° |
| 2026-04-25 19:35 | 25.25692 | 55.66412 | 5135 ft | 241 kts | 301° |
| 2026-04-25 19:36 | 25.26550 | 55.64875 | 4950 ft | 231 kts | 301° |
| 2026-04-25 19:36 | 25.27065 | 55.63232 | 4624 ft | 227 kts | 279° |
| 2026-04-25 19:36 | 25.26834 | 55.61537 | 4324 ft | 223 kts | 253° |
| 2026-04-25 19:36 | 25.25932 | 55.60168 | 4028 ft | 222 kts | 226° |
| 2026-04-25 19:37 | 25.24619 | 55.59297 | 3850 ft | 215 kts | 211° |
| 2026-04-25 19:37 | 25.23356 | 55.58516 | 3643 ft | 213 kts | 211° |
| 2026-04-25 19:37 | 25.22041 | 55.57677 | 3383 ft | 213 kts | 211° |
| 2026-04-25 19:37 | 25.20751 | 55.56851 | 3132 ft | 214 kts | 211° |
| 2026-04-25 19:38 | 25.19474 | 55.56030 | 2917 ft | 212 kts | 211° |
| 2026-04-25 19:38 | 25.18200 | 55.55210 | 2713 ft | 211 kts | 211° |
| 2026-04-25 19:38 | 25.17001 | 55.54295 | 2436 ft | 211 kts | 224° |
| 2026-04-25 19:38 | 25.16366 | 55.52865 | 2155 ft | 206 kts | 256° |
| 2026-04-25 19:39 | 25.16504 | 55.51346 | 2056 ft | 200 kts | 286° |
| 2026-04-25 19:39 | 25.17364 | 55.50146 | 2077 ft | 197 kts | 315° |
| 2026-04-25 19:39 | 25.18202 | 55.49039 | 2055 ft | 187 kts | 308° |
| 2026-04-25 19:39 | 25.18917 | 55.47862 | 1827 ft | 182 kts | 304° |
| 2026-04-25 19:40 | 25.19603 | 55.46671 | 1570 ft | 176 kts | 303° |
| 2026-04-25 19:40 | 25.20222 | 55.45574 | 1331 ft | 162 kts | 303° |
| 2026-04-25 19:40 | 25.20787 | 55.44556 | 1118 ft | 152 kts | 303° |
| 2026-04-25 19:40 | 25.21329 | 55.43572 | 934 ft | 147 kts | 302° |
| 2026-04-25 19:41 | 25.21857 | 55.42610 | 737 ft | 144 kts | 302° |
| 2026-04-25 19:41 | 25.22370 | 55.41683 | 545 ft | 142 kts | 302° |
| 2026-04-25 19:41 | 25.22898 | 55.40738 | 352 ft | 141 kts | 302° |
| 2026-04-25 19:41 | 25.23065 | 55.40439 | 286 ft | 140 kts | 302° |
| 2026-04-25 19:42 | 25.23912 | 55.38931 | 48 ft | 125 kts | 300° |
| 2026-04-25 19:42 | 25.24147 | 55.38492 | 48 ft | 66 kts | 300° |
| 2026-04-25 19:42 | 25.24324 | 55.38175 | 48 ft | 41 kts | 301° |
| 2026-04-25 19:42 | 25.24469 | 55.37913 | 48 ft | 32 kts | 302° |
| 2026-04-25 19:43 | 25.24569 | 55.37732 | 48 ft | 28 kts | 302° |
| 2026-04-25 19:43 | 25.24679 | 55.37534 | 48 ft | 30 kts | 301° |
| 2026-04-25 19:43 | 25.24792 | 55.37325 | 48 ft | 34 kts | 302° |
| 2026-04-25 19:43 | 25.24924 | 55.37094 | 48 ft | 38 kts | 300° |
| 2026-04-25 19:44 | 25.25013 | 55.36868 | 48 ft | 27 kts | 279° |
| 2026-04-25 19:44 | 25.25023 | 55.36717 | 48 ft | 10 kts | 271° |
| 2026-04-25 19:44 | 25.25023 | 55.36707 | 48 ft | 0 kts | 269° |
| 2026-04-25 19:44 | 25.25023 | 55.36706 | 48 ft | 0 kts | 269° |
| 2026-04-25 19:45 | 25.25022 | 55.36692 | 48 ft | 6 kts | 269° |
| 2026-04-25 19:45 | 25.25022 | 55.36634 | 48 ft | 7 kts | 270° |
| 2026-04-25 19:46 | 25.25025 | 55.36543 | 48 ft | 17 kts | 273° |
| 2026-04-25 19:46 | 25.25041 | 55.36425 | 48 ft | 14 kts | 284° |
| 2026-04-25 19:46 | 25.25092 | 55.36304 | 48 ft | 12 kts | 302° |
| 2026-04-25 19:46 | 25.25140 | 55.36217 | 48 ft | 18 kts | 302° |
| 2026-04-25 19:47 | 25.25214 | 55.36082 | 48 ft | 18 kts | 302° |
| 2026-04-25 19:47 | 25.25287 | 55.35954 | 48 ft | 22 kts | 302° |
| 2026-04-25 19:47 | 25.25360 | 55.35821 | 48 ft | 16 kts | 301° |
| 2026-04-25 19:47 | 25.25431 | 55.35691 | 48 ft | 20 kts | 300° |
| 2026-04-25 19:48 | 25.25488 | 55.35586 | 48 ft | 18 kts | 301° |
| 2026-04-25 19:48 | 25.25567 | 55.35444 | 48 ft | 25 kts | 302° |
| 2026-04-25 19:48 | 25.25645 | 55.35303 | 48 ft | 12 kts | 301° |
| 2026-04-25 19:48 | 25.25691 | 55.35219 | 48 ft | 11 kts | 301° |
| 2026-04-25 19:49 | 25.25730 | 55.35149 | 48 ft | 7 kts | 301° |
| 2026-04-25 19:49 | 25.25755 | 55.35103 | 48 ft | 14 kts | 300° |
| 2026-04-25 19:49 | 25.25777 | 55.35061 | 48 ft | 5 kts | 301° |
| 2026-04-25 19:49 | 25.25784 | 55.35049 | 48 ft | 3 kts | 301° |
| 2026-04-25 19:50 | 25.25788 | 55.35042 | 48 ft | 0 kts | 301° |
| 2026-04-25 19:52 | 25.25807 | 55.35008 | 48 ft | 11 kts | 302° |
| 2026-04-25 19:52 | 25.25848 | 55.34930 | 48 ft | 14 kts | 300° |
| 2026-04-25 19:52 | 25.25906 | 55.34826 | 48 ft | 18 kts | 301° |
| 2026-04-25 19:52 | 25.25970 | 55.34711 | 48 ft | 17 kts | 301° |
| 2026-04-25 19:53 | 25.26025 | 55.34612 | 48 ft | 15 kts | 302° |
| 2026-04-25 19:53 | 25.26063 | 55.34545 | 48 ft | 8 kts | 300° |
| 2026-04-25 19:53 | 25.26089 | 55.34493 | 48 ft | 6 kts | 299° |
| 2026-04-25 19:53 | 25.26111 | 55.34452 | 48 ft | 6 kts | 305° |
| 2026-04-25 19:54 | 25.26138 | 55.34443 | 48 ft | 4 kts | 18° |
| 2026-04-25 19:54 | 25.26156 | 55.34459 | 48 ft | 4 kts | 39° |
| 2026-04-25 19:54 | 25.26184 | 55.34481 | 48 ft | 3 kts | 32° |
| 2026-04-25 19:54 | 25.26193 | 55.34487 | 48 ft | 2 kts | 32° |
| 2026-04-25 19:55 | 25.26207 | 55.34496 | 48 ft | 1 kts | 31° |
| 2026-04-25 19:55 | 25.26212 | 55.34500 | 48 ft | 0 kts | 31° |
| 2026-04-25 19:56 | 25.26213 | 55.34500 | 48 ft | 0 kts | 31° |